Airfield :
LOGIN :

Register | Disclaimer

   EN    FR    IT 

 










Legend :    VFR   Marginal VFR   IFR   Intensive IFR   Very Intensive IFR
Visi :
Ceiling :
>= 8 km
>= 3000ft
5 to 8 km
1000 to 3000 ft
1500m to 5 km
500 to 1000 ft
800 to 1500m
200 to 500 ft
< 800m
< 200 ft
Symbols :   Thunderstorms  Fog  Heavy snow  Heavy precipitations  Wind > 20 kt
SIGMETs :     Misc.  Thunderstorms  Icing  Turbulence  Mountain Waves  Volcanic Ashes






- Airport Elevation : 179 ft
- IATA code : HEL


EFHK - Helsinki Vantaa

CURRENT METAR :
  • 171620Z 22023G34KT 9999 SCT023 BKN028 05/02 Q0988 NOSIG

EXPIRED METARs :
  • 171550Z 22023G35KT 9999 SCT022 BKN029 05/02 Q0988 NOSIG
  • 171520Z 22021KT 9999 FEW021 BKN032 05/02 Q0988 NOSIG
  • 171450Z 22020G32KT 9999 FEW023 BKN032 05/02 Q0987 NOSIG
  • 171420Z 22017KT 9999 FEW021 BKN030 05/02 Q0987 NOSIG
  • 171350Z 22016KT 9999 FEW020 BKN027 05/02 Q0987 NOSIG

TAF TAF EFHK
Valid from the 17 at 15:00 until the 18 at 15:00 UTC


171431Z 1715/1815 23020G33KT 9999 FEW020 BKN030
PROB30
TEMPO 1721/1803 BKN013 FEW020TCU
TEMPO 1803/1806 BKN013 FEW020CB
BECMG 1806/1808 24014KT



MET'MAP, your aeronautical weather chart ! - Copyright ORBIFLY December 2007 - Disclaimer

ORBIFLY MET'MAP TEAM :

Programming & Development : Alexandra Zaïnal
Concept & original design : Baudouin d'Aumeries
Assistance for programming : Marc-Olivier Méhu
Technical & hardware support : Manuel Goepfert

Contact : metmap@orbifly.com




SOURCES & CREDITS :

   NOAA